Time;durP1;ratioP1;P1;durP2;ratioP2;P2;SDS_P1;SDS_P2;PMS_P1;PMS_P2;Temp;Humidity;BMP_temperature;BMP_pressure;BME280_temperature;BME280_humidity;BME280_pressure;Samples;Min_cycle;Max_cycle;Signal;HPM_P1;HPM_P2
2023/09/03 00:00:36;;;;;;;1.92;1.55;;;24.90;99.90;;;;;;10171439;28;20032;-66
2023/09/03 00:05:27;;;;;;;1.63;1.27;;;24.90;99.90;;;;;;10175346;28;20036;-67
2023/09/03 00:10:18;;;;;;;1.40;1.30;;;24.80;99.90;;;;;;10173865;28;20122;-66
2023/09/03 00:15:09;;;;;;;1.25;1.05;;;24.80;99.90;;;;;;10168436;28;20063;-66
2023/09/03 00:20:03;;;;;;;2.50;1.30;;;24.80;99.90;;;;;;10168207;28;20497;-66
2023/09/03 00:24:55;;;;;;;1.90;1.53;;;24.80;99.90;;;;;;10151116;28;20532;-67
2023/09/03 00:29:45;;;;;;;2.20;1.42;;;24.70;99.90;;;;;;10163455;28;20340;-67
2023/09/03 00:34:36;;;;;;;2.97;1.60;;;24.70;99.90;;;;;;10179503;28;20555;-67
2023/09/03 00:39:27;;;;;;;1.95;1.70;;;24.60;99.90;;;;;;10180338;28;20229;-67
2023/09/03 00:44:17;;;;;;;2.42;1.25;;;24.60;99.90;;;;;;10181348;28;20043;-66
2023/09/03 00:49:10;;;;;;;2.08;1.40;;;24.50;99.90;;;;;;10179973;28;20028;-67
2023/09/03 00:54:02;;;;;;;2.30;1.60;;;24.50;99.90;;;;;;10182329;28;20462;-66
2023/09/03 00:58:54;;;;;;;1.70;1.33;;;24.40;99.90;;;;;;10178277;28;20490;-67
2023/09/03 01:03:46;;;;;;;2.20;1.40;;;24.30;99.90;;;;;;10175335;28;20521;-67
2023/09/03 01:08:37;;;;;;;2.05;1.55;;;24.30;99.90;;;;;;10175115;28;20494;-66
2023/09/03 01:13:37;;;;;;;1.27;1.17;;;24.20;99.90;;;;;;10175253;28;20036;-66
2023/09/03 01:18:30;;;;;;;3.42;1.65;;;24.10;99.90;;;;;;10175900;28;20505;-66
2023/09/03 01:23:43;;;;;;;4.03;1.45;;;24.10;99.90;;;;;;10177033;28;20093;-67
2023/09/03 01:28:38;;;;;;;2.55;1.95;;;24.10;99.90;;;;;;10178437;28;20100;-67
2023/09/03 01:33:31;;;;;;;2.10;1.40;;;24.20;99.90;;;;;;10180335;28;20036;-66
2023/09/03 01:38:22;;;;;;;1.55;1.25;;;24.10;99.90;;;;;;10177305;28;20098;-67
2023/09/03 01:43:13;;;;;;;2.70;1.58;;;24.00;99.90;;;;;;10179019;28;20046;-66
2023/09/03 01:48:13;;;;;;;3.38;1.88;;;23.90;99.90;;;;;;10171928;28;20028;-68
2023/09/03 01:53:09;;;;;;;2.55;1.40;;;23.90;99.90;;;;;;10175036;28;20028;-68
2023/09/03 01:58:03;;;;;;;1.70;1.45;;;23.90;99.90;;;;;;10172079;28;20032;-67
2023/09/03 02:02:56;;;;;;;2.28;1.48;;;23.90;99.90;;;;;;10179775;28;20040;-66
2023/09/03 02:07:46;;;;;;;3.22;1.58;;;23.70;99.90;;;;;;10176119;28;20031;-67
2023/09/03 02:12:37;;;;;;;2.17;1.40;;;23.70;99.90;;;;;;10176294;28;20023;-66
2023/09/03 02:17:28;;;;;;;2.15;1.50;;;23.70;99.90;;;;;;10176775;28;20032;-66
2023/09/03 02:22:19;;;;;;;2.10;1.60;;;23.70;99.90;;;;;;10177271;28;20066;-66
2023/09/03 02:27:10;;;;;;;2.90;1.20;;;23.60;99.90;;;;;;10174974;28;20400;-66
2023/09/03 02:32:01;;;;;;;1.80;1.20;;;23.50;99.90;;;;;;10175586;28;20063;-66
2023/09/03 02:36:51;;;;;;;2.45;1.65;;;23.40;99.90;;;;;;10177587;28;20782;-66
2023/09/03 02:41:42;;;;;;;2.08;1.42;;;23.40;99.90;;;;;;10171605;28;20024;-67
2023/09/03 02:46:33;;;;;;;3.13;1.40;;;23.40;99.90;;;;;;10171028;28;20051;-66
2023/09/03 02:51:24;;;;;;;4.22;1.50;;;23.40;99.90;;;;;;10176285;28;20401;-66
2023/09/03 02:56:14;;;;;;;3.72;1.60;;;23.50;99.90;;;;;;10173135;28;20335;-66
2023/09/03 03:01:06;;;;;;;1.95;1.20;;;23.50;99.90;;;;;;10174045;28;20409;-66
2023/09/03 03:06:00;;;;;;;1.65;1.30;;;23.40;99.90;;;;;;10172695;28;20036;-66
2023/09/03 03:10:51;;;;;;;3.17;1.50;;;23.40;99.90;;;;;;10174966;28;20456;-66
2023/09/03 03:15:42;;;;;;;2.53;1.58;;;23.30;99.90;;;;;;10174395;28;20062;-68
2023/09/03 03:20:32;;;;;;;2.50;1.45;;;23.30;99.90;;;;;;10176098;28;20096;-66
2023/09/03 03:25:23;;;;;;;1.73;1.40;;;23.30;99.90;;;;;;10176206;28;20048;-65
2023/09/03 03:30:13;;;;;;;2.80;1.65;;;23.20;99.90;;;;;;10174692;28;20111;-67
2023/09/03 03:35:05;;;;;;;2.13;1.55;;;23.10;99.90;;;;;;10174440;28;20471;-67
2023/09/03 03:39:56;;;;;;;2.60;1.58;;;23.00;99.90;;;;;;10173168;28;20157;-66
2023/09/03 03:44:47;;;;;;;2.42;1.50;;;22.90;99.90;;;;;;10173984;28;20167;-67
2023/09/03 03:49:37;;;;;;;5.85;1.63;;;22.90;99.90;;;;;;10172613;28;20412;-67
2023/09/03 03:54:30;;;;;;;1.65;1.40;;;22.90;99.90;;;;;;10173757;28;20196;-67
2023/09/03 03:59:21;;;;;;;2.60;1.23;;;22.90;99.90;;;;;;10173116;28;20036;-66
2023/09/03 04:04:11;;;;;;;3.88;1.73;;;22.90;99.90;;;;;;10181575;28;20367;-67
2023/09/03 04:09:02;;;;;;;2.55;1.63;;;22.90;99.90;;;;;;10183393;28;20092;-67
2023/09/03 04:13:53;;;;;;;2.38;1.58;;;22.80;99.90;;;;;;10180836;28;20089;-67
2023/09/03 04:18:44;;;;;;;2.08;1.77;;;22.70;99.90;;;;;;10175820;28;20034;-67
2023/09/03 04:23:35;;;;;;;1.33;1.23;;;22.80;99.90;;;;;;10176568;28;20164;-67
2023/09/03 04:28:26;;;;;;;2.90;1.50;;;22.70;99.90;;;;;;10176719;28;20032;-67
2023/09/03 04:33:16;;;;;;;2.30;1.48;;;22.60;99.90;;;;;;10176326;28;20356;-67
2023/09/03 04:38:08;;;;;;;3.17;1.60;;;22.50;99.90;;;;;;10178615;28;20032;-67
2023/09/03 04:42:59;;;;;;;2.05;1.40;;;22.60;99.90;;;;;;10180593;28;20050;-67
2023/09/03 04:47:49;;;;;;;2.13;1.30;;;22.60;99.90;;;;;;10162689;28;20036;-66
2023/09/03 04:52:43;;;;;;;1.77;1.20;;;22.50;99.90;;;;;;10181594;28;20042;-67
2023/09/03 04:57:34;;;;;;;3.83;1.50;;;22.40;99.90;;;;;;10181310;28;20059;-66
2023/09/03 05:02:25;;;;;;;3.80;1.48;;;22.40;99.90;;;;;;10176285;28;20158;-66
2023/09/03 05:07:15;;;;;;;3.15;1.83;;;22.40;99.90;;;;;;10185879;28;20040;-67
2023/09/03 05:12:06;;;;;;;2.22;1.67;;;22.30;99.90;;;;;;10183361;28;20382;-67
2023/09/03 05:16:57;;;;;;;1.55;1.27;;;22.30;99.90;;;;;;10181306;28;20025;-67
2023/09/03 05:21:47;;;;;;;6.35;2.28;;;22.30;99.90;;;;;;10176564;28;20044;-67
2023/09/03 05:26:38;;;;;;;4.47;1.83;;;22.30;99.90;;;;;;10159973;28;20127;-67
2023/09/03 05:31:30;;;;;;;2.97;2.15;;;22.30;99.90;;;;;;10178924;28;20197;-67
2023/09/03 05:36:21;;;;;;;2.92;2.08;;;22.30;99.90;;;;;;10180574;28;20107;-67
2023/09/03 05:41:11;;;;;;;6.15;2.13;;;22.20;99.90;;;;;;10177337;28;20103;-67
2023/09/03 05:46:02;;;;;;;3.45;2.30;;;22.20;99.90;;;;;;10175830;28;20063;-67
2023/09/03 05:51:03;;;;;;;3.42;2.70;;;22.20;99.90;;;;;;10189657;28;20531;-67
2023/09/03 05:56:02;;;;;;;3.38;2.45;;;22.20;99.90;;;;;;10184456;28;20126;-67
2023/09/03 06:00:53;;;;;;;3.28;2.10;;;22.30;99.90;;;;;;10173670;28;20024;-67
2023/09/03 06:05:43;;;;;;;4.95;2.63;;;22.30;99.90;;;;;;10179143;28;20050;-68
2023/09/03 06:10:35;;;;;;;5.15;2.08;;;22.20;99.90;;;;;;10175442;28;20513;-67
2023/09/03 06:15:26;;;;;;;3.97;2.80;;;22.20;99.90;;;;;;10176763;28;20089;-67
2023/09/03 06:20:17;;;;;;;4.35;2.67;;;22.10;99.90;;;;;;10178668;28;20222;-67
2023/09/03 06:25:07;;;;;;;4.38;2.75;;;22.20;99.90;;;;;;10177535;28;20447;-67
2023/09/03 06:29:58;;;;;;;3.17;2.33;;;22.10;99.90;;;;;;10176238;28;20024;-66
2023/09/03 06:34:49;;;;;;;3.95;2.60;;;22.20;99.90;;;;;;10178352;28;20055;-67
2023/09/03 06:39:39;;;;;;;5.05;3.42;;;22.20;99.90;;;;;;10177055;28;20016;-66
2023/09/03 06:44:30;;;;;;;5.63;3.25;;;22.20;99.90;;;;;;10171229;28;20097;-67
2023/09/03 06:49:20;;;;;;;6.28;3.53;;;22.20;99.90;;;;;;10170241;28;20509;-65
2023/09/03 06:54:11;;;;;;;5.28;2.97;;;22.30;99.90;;;;;;10171489;28;20032;-65
2023/09/03 06:59:02;;;;;;;4.97;3.13;;;22.30;99.90;;;;;;10171814;28;20040;-65
2023/09/03 07:03:52;;;;;;;3.92;2.97;;;22.30;99.90;;;;;;10173583;28;20039;-66
2023/09/03 07:08:43;;;;;;;5.07;3.00;;;22.30;99.90;;;;;;10174580;28;20024;-66
2023/09/03 07:13:33;;;;;;;5.60;3.13;;;22.30;99.90;;;;;;10177350;28;20020;-66
2023/09/03 07:18:24;;;;;;;4.55;3.22;;;22.40;99.90;;;;;;10175703;28;20410;-66
2023/09/03 07:23:15;;;;;;;3.75;2.65;;;22.40;99.90;;;;;;10175542;28;20128;-66
2023/09/03 07:28:05;;;;;;;5.68;3.30;;;22.40;99.90;;;;;;10174603;28;20458;-66
2023/09/03 07:32:56;;;;;;;4.90;2.88;;;22.30;99.90;;;;;;10175913;28;20036;-66
2023/09/03 07:37:47;;;;;;;6.45;3.10;;;22.20;99.90;;;;;;10172596;28;20502;-66
2023/09/03 07:42:37;;;;;;;3.53;2.80;;;22.30;99.90;;;;;;10173290;28;20477;-67
2023/09/03 07:47:28;;;;;;;6.50;3.40;;;22.30;99.90;;;;;;10175807;28;20278;-67
2023/09/03 07:52:19;;;;;;;3.30;2.53;;;22.40;99.90;;;;;;10162648;28;20032;-68
2023/09/03 07:57:10;;;;;;;5.30;3.25;;;22.40;99.90;;;;;;10173881;28;20402;-66
2023/09/03 08:02:01;;;;;;;5.28;2.90;;;22.40;99.90;;;;;;10174972;28;20118;-65
2023/09/03 08:06:52;;;;;;;5.78;3.22;;;22.40;99.90;;;;;;10173892;28;20405;-67
2023/09/03 08:11:43;;;;;;;6.13;3.38;;;22.50;99.90;;;;;;10174499;28;20035;-67
2023/09/03 08:16:33;;;;;;;5.00;2.90;;;22.50;99.90;;;;;;10166054;28;20530;-67
2023/09/03 08:21:24;;;;;;;3.83;2.63;;;22.70;99.90;;;;;;10166666;28;20029;-68
2023/09/03 08:26:15;;;;;;;4.18;3.10;;;22.70;99.90;;;;;;10174964;28;20055;-67
2023/09/03 08:31:06;;;;;;;4.68;3.17;;;22.70;99.90;;;;;;10169835;28;20028;-66
2023/09/03 08:35:56;;;;;;;4.53;2.67;;;22.70;99.90;;;;;;10171022;28;20033;-66
2023/09/03 08:40:47;;;;;;;7.30;4.50;;;22.70;99.90;;;;;;10168176;28;20024;-66
2023/09/03 08:45:58;;;;;;;4.93;3.25;;;22.80;99.90;;;;;;10174223;28;20063;-65
2023/09/03 08:50:50;;;;;;;8.70;4.18;;;22.80;99.90;;;;;;10180680;28;20037;-66
2023/09/03 08:55:41;;;;;;;5.25;4.22;;;22.80;99.90;;;;;;10174371;28;20036;-66
2023/09/03 09:00:33;;;;;;;4.50;3.30;;;22.90;99.90;;;;;;10181010;28;20016;-66
2023/09/03 09:05:24;;;;;;;5.22;3.45;;;22.90;99.90;;;;;;10176225;28;20051;-66
2023/09/03 09:10:20;;;;;;;5.18;2.50;;;23.00;99.90;;;;;;10174032;28;20031;-67
2023/09/03 09:15:11;;;;;;;4.75;2.85;;;23.00;99.90;;;;;;10174383;28;20036;-67
2023/09/03 09:20:01;;;;;;;6.32;3.22;;;22.90;99.90;;;;;;10175545;28;20028;-67
2023/09/03 09:24:54;;;;;;;7.10;3.60;;;23.00;99.90;;;;;;10176584;28;20067;-68
2023/09/03 09:29:45;;;;;;;3.88;3.05;;;23.10;99.90;;;;;;10177412;28;20547;-68
2023/09/03 09:34:42;;;;;;;5.00;2.80;;;23.20;99.90;;;;;;10179829;28;20036;-68
2023/09/03 09:39:48;;;;;;;2.95;2.20;;;23.20;99.90;;;;;;10179869;28;20093;-68
2023/09/03 09:44:59;;;;;;;3.05;2.08;;;23.30;99.90;;;;;;10176039;28;20131;-66
2023/09/03 09:49:49;;;;;;;2.75;2.50;;;23.40;99.90;;;;;;10179092;28;20085;-67
2023/09/03 09:54:42;;;;;;;2.67;2.10;;;23.40;99.90;;;;;;10171276;28;20032;-67
2023/09/03 09:59:32;;;;;;;2.75;2.25;;;23.50;99.90;;;;;;10178362;28;20032;-67
2023/09/03 10:04:26;;;;;;;2.83;1.70;;;23.60;99.90;;;;;;10176760;28;20049;-67
2023/09/03 10:09:17;;;;;;;4.10;1.93;;;23.70;99.90;;;;;;10175575;28;20024;-66
2023/09/03 10:14:09;;;;;;;4.25;2.00;;;23.80;99.90;;;;;;10175293;28;20028;-67
2023/09/03 10:19:04;;;;;;;1.65;1.38;;;23.90;99.90;;;;;;10176598;28;20036;-67
2023/09/03 10:23:58;;;;;;;2.72;1.80;;;24.00;99.90;;;;;;10178376;28;20040;-68
2023/09/03 10:28:55;;;;;;;3.35;1.30;;;24.10;99.90;;;;;;10177487;28;20030;-67
2023/09/03 10:33:46;;;;;;;2.22;1.58;;;24.10;99.90;;;;;;10177878;28;20035;-68
2023/09/03 10:38:36;;;;;;;2.88;1.50;;;24.10;99.90;;;;;;10174711;28;20024;-66
2023/09/03 10:43:27;;;;;;;2.65;1.60;;;24.20;99.90;;;;;;10152350;28;20510;-67
2023/09/03 10:48:18;;;;;;;2.65;1.38;;;24.20;99.90;;;;;;10152788;28;20024;-67
2023/09/03 10:53:29;;;;;;;3.83;1.60;;;24.30;99.90;;;;;;10172220;28;20434;-67
2023/09/03 10:58:30;;;;;;;4.10;1.63;;;24.30;99.90;;;;;;10168672;28;20571;-68
2023/09/03 11:03:23;;;;;;;2.33;1.45;;;24.40;99.90;;;;;;10156372;28;20546;-67
2023/09/03 11:08:31;;;;;;;2.95;1.70;;;24.50;99.90;;;;;;10158644;28;20024;-67
2023/09/03 11:13:22;;;;;;;1.80;1.13;;;24.50;99.90;;;;;;10166627;28;20514;-66
2023/09/03 11:18:17;;;;;;;2.30;1.30;;;24.60;99.90;;;;;;10176317;28;20032;-66
2023/09/03 11:23:10;;;;;;;2.10;1.75;;;24.70;99.90;;;;;;10165932;28;20052;-66
2023/09/03 11:28:00;;;;;;;1.33;1.15;;;24.70;99.90;;;;;;10174237;28;20040;-66
2023/09/03 11:32:51;;;;;;;3.38;1.80;;;24.80;99.90;;;;;;10174386;28;20464;-67
2023/09/03 11:37:42;;;;;;;2.67;1.70;;;24.90;99.90;;;;;;10157503;28;20131;-67
2023/09/03 11:42:32;;;;;;;5.90;1.63;;;24.90;99.90;;;;;;10174154;28;20046;-65
2023/09/03 11:47:23;;;;;;;2.80;1.33;;;24.90;99.90;;;;;;10171732;28;20100;-65
2023/09/03 11:52:15;;;;;;;1.60;0.90;;;25.00;99.90;;;;;;10154979;28;20029;-65
2023/09/03 11:57:08;;;;;;;2.58;0.90;;;25.00;99.90;;;;;;10164697;28;20020;-66
2023/09/03 12:01:59;;;;;;;1.75;1.05;;;25.20;99.90;;;;;;10157936;28;20024;-66
2023/09/03 12:06:49;;;;;;;2.45;0.90;;;25.30;99.90;;;;;;10175257;28;20032;-66
2023/09/03 12:11:40;;;;;;;1.15;0.95;;;25.30;99.90;;;;;;10173901;28;20444;-66
2023/09/03 12:16:44;;;;;;;2.65;1.27;;;25.40;99.90;;;;;;10175507;28;20490;-66
2023/09/03 12:21:36;;;;;;;1.98;1.27;;;25.40;99.90;;;;;;10165947;28;20040;-67
2023/09/03 12:26:27;;;;;;;2.03;1.10;;;25.50;99.90;;;;;;10174497;28;20032;-67
2023/09/03 12:31:17;;;;;;;1.73;1.10;;;25.60;99.90;;;;;;10175677;28;20517;-67
2023/09/03 12:36:10;;;;;;;2.10;1.30;;;25.70;99.90;;;;;;10176886;28;20036;-66
2023/09/03 12:41:01;;;;;;;1.95;1.00;;;25.80;99.90;;;;;;10182355;28;20168;-65
2023/09/03 12:45:51;;;;;;;1.50;0.90;;;25.90;99.90;;;;;;10182084;28;20206;-66
2023/09/03 12:50:42;;;;;;;0.70;0.52;;;26.10;99.90;;;;;;10180841;28;20032;-66
2023/09/03 12:55:33;;;;;;;1.73;1.35;;;26.20;99.90;;;;;;10174706;28;20119;-65
2023/09/03 13:00:23;;;;;;;1.15;0.95;;;26.20;99.90;;;;;;10178149;28;20111;-66
2023/09/03 13:05:14;;;;;;;3.20;0.93;;;26.20;99.90;;;;;;10181154;28;20119;-65
2023/09/03 13:10:05;;;;;;;2.22;0.88;;;26.40;99.90;;;;;;10163094;28;20335;-66
2023/09/03 13:14:56;;;;;;;0.73;0.70;;;26.50;99.90;;;;;;10173824;28;20095;-66
2023/09/03 13:19:46;;;;;;;0.90;0.70;;;26.60;99.90;;;;;;10156983;28;20115;-66
2023/09/03 13:24:37;;;;;;;1.00;0.80;;;26.60;99.90;;;;;;10176479;28;20052;-66
2023/09/03 13:29:27;;;;;;;1.33;0.98;;;26.60;99.90;;;;;;10177482;28;20054;-66
2023/09/03 13:34:18;;;;;;;0.85;0.60;;;26.70;99.90;;;;;;10178713;28;20089;-66
2023/09/03 13:39:09;;;;;;;1.30;0.80;;;26.90;99.90;;;;;;10175247;28;20031;-66
2023/09/03 13:43:59;;;;;;;3.85;1.13;;;27.00;99.90;;;;;;10154680;28;20032;-66
2023/09/03 13:48:50;;;;;;;0.80;0.60;;;27.10;99.90;;;;;;10168055;28;20119;-66
2023/09/03 13:53:41;;;;;;;0.95;0.60;;;27.10;99.90;;;;;;10179974;28;20040;-66
2023/09/03 13:58:31;;;;;;;0.88;0.70;;;27.20;99.90;;;;;;10160586;28;20037;-66
2023/09/03 14:03:22;;;;;;;0.80;0.60;;;27.40;99.90;;;;;;10179971;28;20060;-67
2023/09/03 14:08:12;;;;;;;1.50;0.60;;;27.60;99.90;;;;;;10176754;28;20059;-67
2023/09/03 14:13:04;;;;;;;0.93;0.70;;;27.60;99.90;;;;;;10175510;28;20084;-66
2023/09/03 14:17:54;;;;;;;1.58;0.90;;;27.70;99.90;;;;;;10176463;28;20568;-67
2023/09/03 14:22:45;;;;;;;1.17;0.75;;;27.60;99.90;;;;;;10178141;28;20123;-67
2023/09/03 14:27:36;;;;;;;1.42;1.00;;;27.70;99.90;;;;;;10178734;28;20036;-66
2023/09/03 14:32:26;;;;;;;1.83;0.60;;;27.90;99.90;;;;;;10174990;28;20058;-67
2023/09/03 14:37:17;;;;;;;1.10;0.77;;;28.00;99.90;;;;;;10175629;28;20039;-67
2023/09/03 14:42:07;;;;;;;1.00;0.88;;;28.10;99.90;;;;;;10176863;28;20039;-68
2023/09/03 14:46:58;;;;;;;1.08;0.88;;;28.20;99.90;;;;;;10168744;28;20126;-67
2023/09/03 14:51:49;;;;;;;1.45;0.90;;;28.20;99.90;;;;;;10170515;28;20024;-68
2023/09/03 14:56:39;;;;;;;2.33;1.00;;;28.30;99.90;;;;;;10171742;28;20043;-67
2023/09/03 15:01:30;;;;;;;1.25;0.90;;;28.50;99.90;;;;;;10173503;28;20024;-67
2023/09/03 15:06:22;;;;;;;1.00;0.80;;;28.60;99.90;;;;;;10177343;28;20040;-67
2023/09/03 15:11:17;;;;;;;2.05;1.10;;;28.50;99.90;;;;;;10176140;28;20020;-67
2023/09/03 15:16:08;;;;;;;1.27;1.02;;;28.60;99.90;;;;;;10177161;28;20085;-67
2023/09/03 15:20:59;;;;;;;2.40;1.08;;;28.80;99.90;;;;;;10174918;28;20398;-66
2023/09/03 15:25:50;;;;;;;0.80;0.77;;;28.80;99.90;;;;;;10174956;28;20060;-67
2023/09/03 15:30:42;;;;;;;1.10;0.85;;;28.80;99.90;;;;;;10176101;28;20035;-66
2023/09/03 15:35:36;;;;;;;2.33;1.40;;;28.90;99.90;;;;;;10174249;28;20032;-66
2023/09/03 15:40:27;;;;;;;2.28;1.30;;;28.80;99.90;;;;;;10171919;28;20394;-66
2023/09/03 15:45:17;;;;;;;1.35;1.10;;;28.90;99.90;;;;;;10172658;28;20050;-67
2023/09/03 15:50:08;;;;;;;1.08;1.00;;;28.70;99.90;;;;;;10172295;28;20409;-67
2023/09/03 15:54:59;;;;;;;1.55;1.08;;;28.70;99.90;;;;;;10172059;28;20028;-66
2023/09/03 15:59:50;;;;;;;1.55;1.20;;;28.60;99.90;;;;;;10181690;28;20059;-66
2023/09/03 16:04:41;;;;;;;1.75;1.13;;;28.60;99.90;;;;;;10184123;28;20036;-67
2023/09/03 16:09:32;;;;;;;2.22;1.15;;;28.80;99.90;;;;;;10180482;28;20054;-66
2023/09/03 16:14:25;;;;;;;1.85;1.05;;;28.80;99.90;;;;;;10181873;28;20035;-66
2023/09/03 16:19:16;;;;;;;0.85;0.80;;;28.80;99.90;;;;;;10183008;28;20492;-66
2023/09/03 16:24:07;;;;;;;1.52;1.00;;;28.60;99.90;;;;;;10177819;28;20130;-65
2023/09/03 16:28:57;;;;;;;1.30;0.90;;;28.60;99.90;;;;;;10175890;28;20474;-65
2023/09/03 16:33:48;;;;;;;1.08;0.98;;;28.60;99.90;;;;;;10178958;28;20383;-66
2023/09/03 16:38:39;;;;;;;3.03;1.17;;;28.60;99.90;;;;;;10163898;28;20032;-67
2023/09/03 16:43:31;;;;;;;1.17;0.90;;;28.50;99.90;;;;;;10178474;28;20032;-67
2023/09/03 16:48:25;;;;;;;2.17;1.15;;;28.60;99.90;;;;;;10180829;28;20560;-68
2023/09/03 16:53:16;;;;;;;1.33;0.77;;;28.60;99.90;;;;;;10180536;28;20367;-67
2023/09/03 16:58:06;;;;;;;3.28;1.20;;;28.50;99.90;;;;;;10177522;28;20036;-67
2023/09/03 17:02:57;;;;;;;1.10;0.73;;;28.40;99.90;;;;;;10177750;28;20112;-66
2023/09/03 17:07:48;;;;;;;2.10;1.38;;;28.30;99.90;;;;;;10178971;28;20119;-66
2023/09/03 17:12:38;;;;;;;1.48;1.10;;;28.20;99.90;;;;;;10180719;28;20024;-66
2023/09/03 17:17:29;;;;;;;5.32;1.42;;;28.20;99.90;;;;;;10176604;28;20381;-67
2023/09/03 17:22:19;;;;;;;1.83;1.33;;;28.10;99.90;;;;;;10176167;28;20039;-67
2023/09/03 17:27:10;;;;;;;1.58;1.15;;;27.90;99.90;;;;;;10176316;28;20036;-67
2023/09/03 17:32:01;;;;;;;1.98;1.45;;;27.70;99.90;;;;;;10177977;28;20078;-67
2023/09/03 17:36:51;;;;;;;1.90;1.40;;;27.60;99.90;;;;;;10180449;28;20565;-67
2023/09/03 17:41:42;;;;;;;3.15;1.70;;;27.60;99.90;;;;;;10179334;28;20028;-67
2023/09/03 17:46:32;;;;;;;3.45;1.75;;;27.40;99.90;;;;;;10174998;28;20048;-67
2023/09/03 17:51:23;;;;;;;2.60;1.67;;;27.40;99.90;;;;;;10158626;28;20482;-68
2023/09/03 17:56:14;;;;;;;2.58;1.85;;;27.20;99.90;;;;;;10173569;28;20032;-67
2023/09/03 18:01:05;;;;;;;2.30;1.85;;;27.10;99.90;;;;;;10178352;28;20034;-67
2023/09/03 18:05:55;;;;;;;5.28;1.90;;;27.10;99.90;;;;;;10175438;28;20032;-66
2023/09/03 18:10:46;;;;;;;3.28;1.85;;;27.00;99.90;;;;;;10173794;28;20031;-66
2023/09/03 18:15:37;;;;;;;2.70;2.00;;;26.90;99.90;;;;;;10174786;28;20068;-66
2023/09/03 18:20:27;;;;;;;3.20;2.08;;;26.80;99.90;;;;;;10176070;28;20085;-67
2023/09/03 18:25:23;;;;;;;2.47;1.58;;;26.70;99.90;;;;;;10177748;28;20048;-67
2023/09/03 18:30:13;;;;;;;2.78;1.90;;;26.60;99.90;;;;;;10174354;28;20020;-66
2023/09/03 18:35:04;;;;;;;3.22;2.22;;;26.50;99.90;;;;;;10173603;28;20047;-66
2023/09/03 18:39:55;;;;;;;3.15;2.22;;;26.40;99.90;;;;;;10174027;28;20486;-67
2023/09/03 18:44:46;;;;;;;3.78;3.03;;;26.40;99.90;;;;;;10159588;28;20176;-68
2023/09/03 18:49:36;;;;;;;2.78;2.25;;;26.40;99.90;;;;;;10177705;28;20028;-66
2023/09/03 18:54:27;;;;;;;3.35;2.17;;;26.30;99.90;;;;;;10176953;28;20123;-66
2023/09/03 18:59:18;;;;;;;3.13;2.78;;;26.20;99.90;;;;;;10168447;28;20058;-67
2023/09/03 19:04:08;;;;;;;2.63;2.25;;;26.20;99.90;;;;;;10177629;28;20039;-67
2023/09/03 19:09:01;;;;;;;2.78;2.25;;;26.20;99.90;;;;;;10175895;28;20036;-67
2023/09/03 19:13:51;;;;;;;2.33;2.08;;;26.10;99.90;;;;;;10175587;28;20032;-67
2023/09/03 19:18:42;;;;;;;2.92;2.63;;;26.10;99.90;;;;;;10176479;28;20432;-67
2023/09/03 19:23:35;;;;;;;2.95;2.40;;;26.10;99.90;;;;;;10156418;28;20055;-67
2023/09/03 19:28:26;;;;;;;3.28;2.30;;;26.10;99.90;;;;;;10173262;28;20024;-67
2023/09/03 19:33:20;;;;;;;4.35;2.40;;;26.00;99.90;;;;;;10173221;28;20024;-67
2023/09/03 19:38:11;;;;;;;3.38;2.53;;;25.90;99.90;;;;;;10164703;28;20678;-67
2023/09/03 19:43:02;;;;;;;2.95;2.38;;;25.90;99.90;;;;;;10173476;28;20097;-67
2023/09/03 19:48:12;;;;;;;3.08;2.45;;;25.90;99.90;;;;;;10160890;28;20544;-67
2023/09/03 19:53:03;;;;;;;3.60;2.83;;;25.70;99.90;;;;;;10173759;28;20142;-67
2023/09/03 19:57:53;;;;;;;4.85;2.55;;;25.70;99.90;;;;;;10176239;28;20060;-67
2023/09/03 20:02:44;;;;;;;4.07;2.72;;;25.50;99.90;;;;;;10163251;28;20020;-67
2023/09/03 20:07:35;;;;;;;4.93;3.10;;;25.40;99.90;;;;;;10179029;28;20059;-67
2023/09/03 20:12:25;;;;;;;3.85;2.88;;;25.40;99.90;;;;;;10156326;28;20131;-66
2023/09/03 20:17:16;;;;;;;3.58;2.70;;;25.30;99.90;;;;;;10177768;28;20066;-67
2023/09/03 20:22:06;;;;;;;5.20;3.00;;;25.30;99.90;;;;;;10175525;28;20047;-67
2023/09/03 20:26:57;;;;;;;3.78;2.63;;;25.20;99.90;;;;;;10173708;28;20055;-67
2023/09/03 20:31:48;;;;;;;4.38;3.17;;;25.30;99.90;;;;;;10174803;28;20157;-67
2023/09/03 20:36:39;;;;;;;4.60;2.92;;;25.10;99.90;;;;;;10173432;28;20157;-67
2023/09/03 20:41:31;;;;;;;4.00;3.10;;;25.20;99.90;;;;;;10173905;28;20043;-67
2023/09/03 20:46:22;;;;;;;3.40;2.53;;;25.20;99.90;;;;;;10180319;28;20036;-67
2023/09/03 20:51:13;;;;;;;3.13;2.65;;;25.20;99.90;;;;;;10180832;28;20028;-68
2023/09/03 20:56:03;;;;;;;5.63;2.90;;;25.20;99.90;;;;;;10180407;28;20063;-67
2023/09/03 21:00:54;;;;;;;4.82;2.95;;;25.10;99.90;;;;;;10174765;28;20025;-67
2023/09/03 21:06:03;;;;;;;3.05;2.50;;;25.00;99.90;;;;;;10180625;28;20040;-67
2023/09/03 21:10:59;;;;;;;4.00;2.88;;;24.90;99.90;;;;;;10176766;28;20035;-67
2023/09/03 21:15:53;;;;;;;4.22;2.92;;;24.90;99.90;;;;;;10162460;28;20042;-67
2023/09/03 21:20:43;;;;;;;3.97;2.95;;;24.90;99.90;;;;;;10179516;28;20024;-67
2023/09/03 21:25:35;;;;;;;4.65;2.90;;;24.80;99.90;;;;;;10176104;28;20150;-67
2023/09/03 21:30:26;;;;;;;10.32;2.65;;;24.80;99.90;;;;;;10177192;28;20036;-67
2023/09/03 21:35:16;;;;;;;3.55;2.92;;;24.70;99.90;;;;;;10177214;28;20032;-67
2023/09/03 21:40:09;;;;;;;4.20;3.00;;;24.70;99.90;;;;;;10177598;28;20561;-67
2023/09/03 21:45:00;;;;;;;3.88;2.55;;;24.60;99.90;;;;;;10171477;28;20044;-69
2023/09/03 21:49:50;;;;;;;4.20;3.00;;;24.40;99.90;;;;;;10172729;28;20047;-67
2023/09/03 21:54:41;;;;;;;3.85;2.65;;;24.40;99.90;;;;;;10178715;28;20535;-67
2023/09/03 21:59:33;;;;;;;5.60;3.03;;;24.30;99.90;;;;;;10169884;28;20103;-68
2023/09/03 22:04:24;;;;;;;3.47;3.13;;;24.30;99.90;;;;;;10177751;28;20039;-66
2023/09/03 22:09:14;;;;;;;3.33;2.40;;;24.20;99.90;;;;;;10174189;28;20035;-66
2023/09/03 22:14:05;;;;;;;5.03;2.97;;;24.10;99.90;;;;;;10173592;28;20119;-67
2023/09/03 22:18:56;;;;;;;5.53;3.75;;;24.10;99.90;;;;;;10178017;28;20111;-67
2023/09/03 22:23:47;;;;;;;5.03;3.20;;;24.10;99.90;;;;;;10176137;28;20109;-66
2023/09/03 22:28:37;;;;;;;4.20;2.90;;;24.00;99.90;;;;;;10177518;28;20028;-66
2023/09/03 22:33:28;;;;;;;4.65;3.33;;;23.80;99.90;;;;;;10171277;28;20028;-67
2023/09/03 22:38:18;;;;;;;3.80;2.70;;;23.60;99.90;;;;;;10172841;28;20023;-67
2023/09/03 22:43:09;;;;;;;4.30;2.97;;;23.50;99.90;;;;;;10155836;28;20546;-66
2023/09/03 22:47:59;;;;;;;4.47;3.45;;;23.50;99.90;;;;;;10156732;28;20065;-67
2023/09/03 22:52:50;;;;;;;5.97;3.45;;;23.50;99.90;;;;;;10176905;28;20181;-66
2023/09/03 22:57:41;;;;;;;6.88;3.53;;;23.30;99.90;;;;;;10176207;28;20024;-66
2023/09/03 23:02:31;;;;;;;4.38;2.80;;;23.30;99.90;;;;;;10157503;28;20135;-66
2023/09/03 23:07:22;;;;;;;5.47;2.70;;;23.20;99.90;;;;;;10174472;28;20043;-66
2023/09/03 23:12:13;;;;;;;5.03;2.97;;;23.20;99.90;;;;;;10158143;28;20036;-67
2023/09/03 23:17:03;;;;;;;6.25;2.65;;;23.20;99.90;;;;;;10158448;28;20213;-66
2023/09/03 23:21:54;;;;;;;3.20;2.63;;;23.10;99.90;;;;;;10173371;28;20040;-67
2023/09/03 23:26:46;;;;;;;3.90;2.70;;;23.10;99.90;;;;;;10171835;28;20055;-67
2023/09/03 23:31:37;;;;;;;4.05;2.80;;;23.00;99.90;;;;;;10173960;28;20486;-67
2023/09/03 23:36:28;;;;;;;4.10;2.80;;;23.00;99.90;;;;;;10174395;28;20062;-67
2023/09/03 23:41:18;;;;;;;5.07;2.78;;;22.90;99.90;;;;;;10140577;28;20052;-67
2023/09/03 23:46:09;;;;;;;3.60;2.97;;;22.80;99.90;;;;;;10175216;28;20058;-67
2023/09/03 23:51:00;;;;;;;2.80;2.55;;;22.80;99.90;;;;;;10170787;28;20436;-67
2023/09/03 23:55:54;;;;;;;4.63;3.30;;;22.70;99.90;;;;;;10171360;28;20390;-67
